createdAt,value
2023-04-08T00:04:36.385Z,100708.94
2023-04-08T00:09:38.963Z,100692.56
2023-04-08T00:14:41.744Z,100691.84
2023-04-08T00:19:45.027Z,100696.38
2023-04-08T00:24:47.158Z,100697.56
2023-04-08T00:29:49.287Z,100698.28
2023-04-08T00:34:51.422Z,100699.94
2023-04-08T00:39:54.307Z,100704.94
2023-04-08T00:44:56.969Z,100701.97
2023-04-08T00:49:59.408Z,100705.63
2023-04-08T00:55:01.545Z,100697.84
2023-04-08T01:00:06.507Z,100707.69
2023-04-08T01:05:34.736Z,100707.69
2023-04-08T01:10:39.231Z,100704.69
2023-04-08T01:15:44.501Z,100704.34
2023-04-08T01:20:47.835Z,100707.78
2023-04-08T01:25:54.320Z,100700.44
2023-04-08T01:30:59.285Z,100702.78
2023-04-08T01:36:02.621Z,100709.31
2023-04-08T01:41:05.869Z,100717.47
2023-04-08T01:46:10.679Z,100711.91
2023-04-08T01:51:13.575Z,100697.31
2023-04-08T01:56:16.642Z,100702.31
2023-04-08T02:01:22.842Z,100699.22
2023-04-08T02:06:27.772Z,100702.22
2023-04-08T02:11:29.992Z,100700.75
2023-04-08T02:16:36.262Z,100697.91
2023-04-08T02:22:09.539Z,100702.06
2023-04-08T02:27:12.135Z,100697.81
2023-04-08T02:32:16.680Z,100696.47
2023-04-08T02:37:19.428Z,100694.69
2023-04-08T02:42:21.616Z,100694.34
2023-04-08T02:47:23.956Z,100696.69
2023-04-08T02:52:26.385Z,100699.19
2023-04-08T02:57:28.564Z,100694.22
2023-04-08T03:02:30.886Z,100695.50
2023-04-08T03:07:33.864Z,100700.59
2023-04-08T03:12:36.068Z,100698.94
2023-04-08T03:17:38.278Z,100703.91
2023-04-08T03:22:40.525Z,100703.06
2023-04-08T03:27:42.675Z,100707.31
2023-04-08T03:32:45.046Z,100712.69
2023-04-08T03:37:47.231Z,100710.19
2023-04-08T03:42:49.382Z,100714.81
2023-04-08T03:47:51.603Z,100712.06
2023-04-08T03:52:53.804Z,100711.25
2023-04-08T03:57:56.242Z,100729.97
2023-04-08T04:02:58.649Z,100733.13
2023-04-08T04:08:01.022Z,100735.84
2023-04-08T04:13:03.142Z,100742.22
2023-04-08T04:18:05.524Z,100739.50
2023-04-08T04:23:07.906Z,100750.09
2023-04-08T04:28:10.403Z,100749.03
2023-04-08T04:33:12.554Z,100751.28
2023-04-08T04:38:14.748Z,100752.13
2023-04-08T04:43:16.935Z,100754.28
2023-04-08T04:48:19.195Z,100760.09
2023-04-08T04:53:21.500Z,100756.66
2023-04-08T04:58:24.073Z,100760.38
2023-04-08T05:03:26.591Z,100761.19
2023-04-08T05:08:28.825Z,100766.78
2023-04-08T05:13:32.512Z,100757.06
2023-04-08T05:18:34.740Z,100763.13
2023-04-08T05:23:36.968Z,100769.88
2023-04-08T05:28:39.270Z,100783.41
2023-04-08T05:33:41.474Z,100786.63
2023-04-08T05:38:44.406Z,100788.75
2023-04-08T05:43:46.582Z,100795.28
2023-04-08T05:48:49.030Z,100799.34
2023-04-08T05:53:51.486Z,100796.28
2023-04-08T05:58:53.694Z,100796.87
2023-04-08T06:03:57.027Z,100797.38
2023-04-08T06:08:59.350Z,100804.62
2023-04-08T06:14:01.604Z,100811.13
2023-04-08T06:19:04.006Z,100814.44
2023-04-08T06:24:06.382Z,100819.53
2023-04-08T06:29:08.810Z,100811.13
2023-04-08T06:34:10.983Z,100818.38
2023-04-08T06:39:13.174Z,100823.72
2023-04-08T06:44:15.905Z,100830.25
2023-04-08T06:49:18.139Z,100829.91
2023-04-08T06:54:20.463Z,100834.03
2023-04-08T06:59:22.615Z,100842.84
2023-04-08T07:04:25.013Z,100844.00
2023-04-08T07:09:27.329Z,100839.50
2023-04-08T07:14:30.236Z,100847.34
2023-04-08T07:19:32.476Z,100839.97
2023-04-08T07:24:34.612Z,100847.34
2023-04-08T07:29:36.716Z,100853.44
2023-04-08T07:34:39.003Z,100861.97
2023-04-08T07:39:41.576Z,100874.34
2023-04-08T07:44:43.752Z,100867.78
2023-04-08T07:49:48.784Z,100885.94
2023-04-08T07:54:51.542Z,100890.44
2023-04-08T07:59:54.025Z,100897.84
2023-04-08T08:04:56.482Z,100902.09
2023-04-08T08:09:58.660Z,100899.62
2023-04-08T08:15:00.846Z,100898.53
2023-04-08T08:20:04.554Z,100904.81
2023-04-08T08:25:07.913Z,100908.03
2023-04-08T08:30:10.279Z,100913.03
2023-04-08T08:35:12.523Z,100910.75
2023-04-08T08:40:15.419Z,100905.13
2023-04-08T08:45:19.885Z,100917.69
2023-04-08T08:50:22.283Z,100921.06
2023-04-08T09:00:44.891Z,100925.97
2023-04-08T09:05:57.418Z,100927.09
2023-04-08T09:11:14.495Z,100935.06
2023-04-08T09:16:18.908Z,100937.16
2023-04-08T09:21:24.829Z,100942.28
2023-04-08T09:26:29.777Z,100949.97
2023-04-08T09:31:34.376Z,100956.78
2023-04-08T09:36:36.572Z,100952.63
2023-04-08T09:41:40.054Z,100964.97
2023-04-08T09:46:51.534Z,100967.22
2023-04-08T09:52:04.302Z,100963.25
2023-04-08T09:57:17.347Z,100958.84
2023-04-08T10:02:30.117Z,100956.78
2023-04-08T10:07:32.582Z,100965.87
2023-04-08T10:12:35.324Z,100970.50
2023-04-08T10:17:37.864Z,100961.63
2023-04-08T10:22:48.152Z,100971.69
2023-04-08T10:27:50.301Z,100971.22
2023-04-08T10:32:53.052Z,100966.41
2023-04-08T10:37:56.016Z,100967.06
2023-04-08T10:42:59.650Z,100962.81
2023-04-08T10:48:25.535Z,100961.44
2023-04-08T10:53:29.509Z,100965.44
2023-04-08T10:58:32.144Z,100966.97
2023-04-08T11:03:35.985Z,100966.91
2023-04-08T11:08:38.877Z,100967.22
2023-04-08T11:13:52.126Z,100963.53
2023-04-08T11:18:56.928Z,100966.75
2023-04-08T11:23:59.089Z,100978.16
2023-04-08T11:29:02.516Z,100966.13
2023-04-08T11:34:04.725Z,100968.41
2023-04-08T11:39:08.382Z,100968.31
2023-04-08T11:44:10.777Z,100968.25
2023-04-08T11:49:13.356Z,100971.84
2023-04-08T11:54:27.679Z,100973.25
2023-04-08T11:59:30.053Z,100977.84
2023-04-08T12:04:32.454Z,100974.91
2023-04-08T12:09:34.782Z,100973.81
2023-04-08T12:14:36.935Z,100972.34
2023-04-08T12:19:39.171Z,100964.12
2023-04-08T12:24:41.296Z,100972.41
2023-04-08T12:29:46.045Z,100964.31
2023-04-08T12:34:48.242Z,100959.94
2023-04-08T12:39:52.976Z,100963.09
2023-04-08T12:44:55.273Z,100954.88
2023-04-08T12:49:57.638Z,100962.66
2023-04-08T12:54:59.787Z,100961.88
2023-04-08T13:00:01.918Z,100955.91
2023-04-08T13:05:04.292Z,100952.75
2023-04-08T13:10:07.852Z,100960.81
2023-04-08T13:15:10.679Z,100958.13
2023-04-08T13:20:12.913Z,100966.78
2023-04-08T13:25:16.401Z,100958.22
2023-04-08T13:30:18.567Z,100945.16
2023-04-08T13:35:20.954Z,100950.56
2023-04-08T13:40:23.266Z,100946.69
2023-04-08T13:45:25.893Z,100949.03
2023-04-08T13:50:28.121Z,100945.66
2023-04-08T13:55:30.377Z,100954.47
2023-04-08T14:00:32.914Z,100942.75
2023-04-08T14:05:35.085Z,100949.13
2023-04-08T14:10:37.280Z,100955.09
2023-04-08T14:15:39.461Z,100945.47
2023-04-08T14:20:42.081Z,100949.41
2023-04-08T14:25:44.368Z,100954.28
2023-04-08T14:30:47.563Z,100954.12
2023-04-08T14:35:49.813Z,100955.16
2023-04-08T14:40:52.477Z,100953.78
2023-04-08T14:45:54.919Z,100956.69
2023-04-08T14:50:57.530Z,100951.87
2023-04-08T14:56:00.327Z,100954.22
2023-04-08T15:01:02.477Z,100950.94
2023-04-08T15:06:05.111Z,100955.37
2023-04-08T15:11:07.227Z,100950.97
2023-04-08T15:16:10.811Z,100950.66
2023-04-08T15:21:13.052Z,100951.25
2023-04-08T15:26:15.440Z,100950.81
2023-04-08T15:31:17.717Z,100949.31
2023-04-08T15:36:20.084Z,100947.84
2023-04-08T15:41:22.809Z,100960.38
2023-04-08T15:46:25.022Z,100958.66
2023-04-08T15:51:27.882Z,100963.78
2023-04-08T15:56:30.031Z,100972.28
2023-04-08T16:01:33.517Z,100972.03
2023-04-08T16:06:35.740Z,100978.91
2023-04-08T16:11:37.936Z,100980.06
2023-04-08T16:16:40.954Z,100985.63
2023-04-08T16:21:43.233Z,100985.94
2023-04-08T16:26:45.618Z,100997.97
2023-04-08T16:31:47.737Z,101005.44
2023-04-08T16:36:49.980Z,101002.84
2023-04-08T16:41:56.052Z,101006.19
2023-04-08T16:46:58.173Z,101007.44
2023-04-08T16:52:00.428Z,101024.22
2023-04-08T16:57:02.714Z,101020.63
2023-04-08T17:02:05.009Z,101021.81
2023-04-08T17:07:08.352Z,101029.81
2023-04-08T17:12:11.084Z,101032.91
2023-04-08T17:17:13.734Z,101037.53
2023-04-08T17:22:16.492Z,101042.41
2023-04-08T17:27:18.790Z,101035.97
2023-04-08T17:32:21.041Z,101048.78
2023-04-08T17:37:23.226Z,101062.31
2023-04-08T17:42:26.968Z,101051.78
2023-04-08T17:47:29.329Z,101061.50
2023-04-08T17:52:32.807Z,101061.94
2023-04-08T17:57:34.945Z,101068.50
2023-04-08T18:02:38.340Z,101065.25
2023-04-08T18:07:40.676Z,101076.50
2023-04-08T18:12:42.879Z,101080.72
2023-04-08T18:17:45.184Z,101078.66
2023-04-08T18:22:48.725Z,101085.88
2023-04-08T18:27:50.850Z,101091.44
2023-04-08T18:32:53.100Z,101093.31
2023-04-08T18:37:56.542Z,101099.25
2023-04-08T18:43:02.168Z,101096.97
2023-04-08T18:48:04.534Z,101117.44
2023-04-08T18:53:07.109Z,101113.34
2023-04-08T18:58:09.442Z,101115.00
2023-04-08T19:03:11.901Z,101118.66
2023-04-08T19:08:14.108Z,101114.13
2023-04-08T19:13:16.228Z,101123.22
2023-04-08T19:18:18.406Z,101122.31
2023-04-08T19:23:20.581Z,101126.09
2023-04-08T19:28:22.820Z,101123.56
2023-04-08T19:33:27.515Z,101134.12
2023-04-08T19:38:29.708Z,101129.66
2023-04-08T19:43:31.910Z,101130.19
2023-04-08T19:48:34.936Z,101134.03
2023-04-08T19:53:37.149Z,101139.88
2023-04-08T19:58:39.502Z,101140.91
2023-04-08T20:03:52.550Z,101140.56
2023-04-08T20:08:55.014Z,101137.59
2023-04-08T20:13:57.323Z,101140.19
2023-04-08T20:18:59.502Z,101141.34
2023-04-08T20:24:01.680Z,101140.72
2023-04-08T20:29:03.974Z,101142.31
2023-04-08T20:34:06.194Z,101132.53
2023-04-08T20:39:11.828Z,101145.34
2023-04-08T20:49:16.428Z,101136.84
2023-04-08T20:54:18.685Z,101146.16
2023-04-08T20:59:20.879Z,101146.38
2023-04-08T21:04:24.548Z,101150.62
2023-04-08T21:09:26.756Z,101151.81
2023-04-08T21:14:31.284Z,101147.53
2023-04-08T21:19:33.514Z,101157.38
2023-04-08T21:24:36.731Z,101150.78
2023-04-08T21:29:38.891Z,101156.72
2023-04-08T21:34:41.924Z,101155.47
2023-04-08T21:39:44.120Z,101165.13
2023-04-08T21:44:46.653Z,101160.22
2023-04-08T21:49:50.093Z,101161.41
2023-04-08T21:54:52.478Z,101155.41
2023-04-08T21:59:54.704Z,101153.75
2023-04-08T22:04:58.459Z,101162.31
2023-04-08T22:10:01.755Z,101157.56
2023-04-08T22:15:04.628Z,101160.50
2023-04-08T22:20:07.332Z,101160.94
2023-04-08T22:25:09.784Z,101156.16
2023-04-08T22:30:12.213Z,101153.44
2023-04-08T22:35:14.536Z,101159.31
2023-04-08T22:40:16.793Z,101163.09
2023-04-08T22:45:19.177Z,101159.31
2023-04-08T22:50:23.253Z,101159.75
2023-04-08T22:55:25.813Z,101153.22
2023-04-08T23:00:29.392Z,101159.59
2023-04-08T23:05:31.767Z,101156.94
2023-04-08T23:10:33.951Z,101158.78
2023-04-08T23:15:36.162Z,101166.25
2023-04-08T23:20:38.354Z,101163.59
2023-04-08T23:25:40.441Z,101164.59
2023-04-08T23:30:42.680Z,101175.44
2023-04-08T23:35:45.057Z,101160.75
2023-04-08T23:40:47.324Z,101168.87
2023-04-08T23:45:49.525Z,101158.09
2023-04-08T23:50:52.661Z,101160.84
2023-04-08T23:55:54.916Z,101156.78
